Nakhchivan — 9HHK8 — position and weather

sailwx.info

Track history (hours):
 
Tides and Currents Weather Stations Pressure Air Temp Water Temp Dewpoint Dewpoint Depression Visibility Wind Speed Wind Dir Waves Ship Positions

Nakhchivan

Last reported at 2014-Aug-30 00:32 UTC. Time now 2014-Aug-30 06:34 UTC.
Position N 37°03' W 009°22'.

Length 139 m; draft 4.6 m.

Type: Cargo ship. MMSI: 215983000.

Date/timePositionNaut miles runAvg speedWind from/ knotsBaromVisibWave heightAir tempDewpointWater temp
2014-Aug-30 00:32N 37°03' W 009°22'21 6.8
2014-Aug-29 21:27N 36°44' W 009°09'9 7.7
2014-Aug-29 20:15N 36°41' W 008°58'7 8.1
2014-Aug-29 19:26N 36°39' W 008°50'7 8.3
2014-Aug-29 18:33N 36°37' W 008°42'8 7.9
2014-Aug-29 17:33N 36°34' W 008°32'160 8.4
2014-Aug-28 22:26N 35°57' W 005°19'3 3.1
2014-Aug-28 21:33N 35°54' W 005°19'0 0.0
2014-Aug-28 20:33N 35°54' W 005°19'0 0.0
2014-Aug-28 19:33N 35°54' W 005°19'0 0.0
2014-Aug-28 18:33N 35°54' W 005°19'1 0.6
2014-Aug-28 17:33N 35°54' W 005°19'1 1.4
2014-Aug-28 16:32N 35°55' W 005°18'144 7.8
2014-Aug-27 22:06N 36°12' W 002°22'34 9.4
2014-Aug-27 18:30N 36°18' W 001°40'9 9.8
2014-Aug-27 17:33N 36°20' W 001°29'34 9.8
2014-Aug-27 14:04N 36°28' W 000°48'5 9.8
2014-Aug-27 13:32N 36°29' W 000°41'9 9.5
2014-Aug-27 12:32N 36°32' W 000°30'10 9.8
2014-Aug-27 11:32N 36°34' W 000°18'8 7.9
2014-Aug-27 10:33N 36°35' W 000°08'9 9.1
2014-Aug-27 09:33N 36°37' E 000°03'9 9.5
2014-Aug-27 08:33N 36°39' E 000°14'9 8.8
2014-Aug-27 07:33N 36°41' E 000°25'8 8.1
2014-Aug-27 06:33N 36°43' E 000°35'8 8.3
2014-Aug-27 05:33N 36°45' E 000°45'9 8.7
2014-Aug-27 04:31N 36°48' E 000°56'9 9.2
2014-Aug-27 03:33N 36°50' E 001°06'13 9.0
2014-Aug-27 02:08N 36°52' E 001°22'9 9.2
2014-Aug-27 01:09N 36°53' E 001°33'7 9.1
2014-Aug-27 00:26N 36°54' E 001°41'8 9.1
2014-Aug-26 23:33N 36°55' E 001°51'9 9.3
2014-Aug-26 22:33N 36°57' E 002°03'13 9.3
2014-Aug-26 21:08N 36°59' E 002°19'5 9.0
2014-Aug-26 20:33N 37°00' E 002°26'10 8.8
2014-Aug-26 19:25N 37°01' E 002°38'10 8.8
2014-Aug-26 18:18N 37°02' E 002°50'7 8.9
2014-Aug-26 17:33N 37°03' E 002°58'11 9.2
2014-Aug-26 16:23N 37°04' E 003°12'8 9.2
2014-Aug-26 15:32N 37°05' E 003°21'10 9.2
2014-Aug-26 14:27N 37°07' E 003°34'8 9.3
2014-Aug-26 13:33N 37°08' E 003°44'9 8.8
2014-Aug-26 12:33N 37°09' E 003°55'9 8.8
2014-Aug-26 11:33N 37°11' E 004°06'12 8.9
2014-Aug-26 10:15N 37°12' E 004°20'6 9.0
2014-Aug-26 09:33N 37°13' E 004°28'11 9.0
2014-Aug-26 08:22N 37°15' E 004°42'8 9.2
2014-Aug-26 07:27N 37°16' E 004°52'9 9.5
2014-Aug-26 06:33N 37°17' E 005°03'10 9.6
2014-Aug-26 05:32N 37°19' E 005°15'214 9.2
2014-Aug-25 06:20N 37°41' E 009°43'142 8.5
2014-Aug-24 13:31N 37°03' E 012°36'8 8.8
2014-Aug-24 12:33N 37°01' E 012°46'9 8.9
2014-Aug-24 11:33N 36°58' E 012°56'9 9.1
2014-Aug-24 10:33N 36°54' E 013°07'9 9.0
2014-Aug-24 09:33N 36°51' E 013°17'9 8.7
2014-Aug-24 08:33N 36°49' E 013°28'9 8.9
2014-Aug-24 07:33N 36°46' E 013°38'9 8.9
2014-Aug-24 06:33N 36°43' E 013°49'9 9.2
2014-Aug-24 05:33N 36°40' E 013°60'10 9.5
2014-Aug-24 04:33N 36°37' E 014°11'10 9.6
2014-Aug-24 03:33N 36°33' E 014°22'10 9.5
2014-Aug-24 02:33N 36°30' E 014°33'9 9.2
2014-Aug-24 01:33N 36°27' E 014°44'418 9.1
2014-Aug-22 03:33N 36°39' E 023°24'1010.1
2014-Aug-22 02:32N 36°48' E 023°30'10 9.9
2014-Aug-22 01:33N 36°56' E 023°37'1210.1
2014-Aug-22 00:22N 37°07' E 023°44'1010.4
2014-Aug-21 23:24N 37°15' E 023°51'810.1
2014-Aug-21 22:33N 37°22' E 023°57'30 9.3
2014-Aug-21 19:18N 37°47' E 024°19'64 9.4
2014-Aug-21 12:31N 38°41' E 025°03'10 9.8
2014-Aug-21 11:32N 38°49' E 025°08'1010.0
2014-Aug-21 10:33N 38°58' E 025°14'10 9.8
2014-Aug-21 09:33N 39°07' E 025°19'34 9.9
2014-Aug-21 06:11N 39°37' E 025°39'1010.3
2014-Aug-21 05:13N 39°45' E 025°45'1010.9
2014-Aug-21 04:17N 39°54' E 025°52'710.2
2014-Aug-21 03:33N 40°00' E 025°57'50 9.5
2014-Aug-20 22:15N 40°29' E 026°52'99 9.2
2014-Aug-20 11:33N 40°58' E 028°56'  
Track history (hours):
 
Tides and Currents Weather Stations Pressure Air Temp Water Temp Dewpoint Dewpoint Depression Visibility Wind Speed Wind Dir Waves Ship Positions

Nakhchivan

Last reported at 2014-Aug-30 00:32 UTC. Time now 2014-Aug-30 06:34 UTC.
Position N 37°03' W 009°22'.

Length 139 m; draft 4.6 m.

Type: Cargo ship. MMSI: 215983000.

Date/timePositionNaut miles runAvg speedWind from/ knotsBaromVisibWave heightAir tempDewpointWater temp
2014-Aug-30 00:32N 37°03' W 009°22'21 6.8
2014-Aug-29 21:27N 36°44' W 009°09'9 7.7
2014-Aug-29 20:15N 36°41' W 008°58'7 8.1
2014-Aug-29 19:26N 36°39' W 008°50'7 8.3
2014-Aug-29 18:33N 36°37' W 008°42'8 7.9
2014-Aug-29 17:33N 36°34' W 008°32'160 8.4
2014-Aug-28 22:26N 35°57' W 005°19'3 3.1
2014-Aug-28 21:33N 35°54' W 005°19'0 0.0
2014-Aug-28 20:33N 35°54' W 005°19'0 0.0
2014-Aug-28 19:33N 35°54' W 005°19'0 0.0
2014-Aug-28 18:33N 35°54' W 005°19'1 0.6
2014-Aug-28 17:33N 35°54' W 005°19'1 1.4
2014-Aug-28 16:32N 35°55' W 005°18'144 7.8
2014-Aug-27 22:06N 36°12' W 002°22'34 9.4
2014-Aug-27 18:30N 36°18' W 001°40'9 9.8
2014-Aug-27 17:33N 36°20' W 001°29'34 9.8
2014-Aug-27 14:04N 36°28' W 000°48'5 9.8
2014-Aug-27 13:32N 36°29' W 000°41'9 9.5
2014-Aug-27 12:32N 36°32' W 000°30'10 9.8
2014-Aug-27 11:32N 36°34' W 000°18'8 7.9
2014-Aug-27 10:33N 36°35' W 000°08'9 9.1
2014-Aug-27 09:33N 36°37' E 000°03'9 9.5
2014-Aug-27 08:33N 36°39' E 000°14'9 8.8
2014-Aug-27 07:33N 36°41' E 000°25'8 8.1
2014-Aug-27 06:33N 36°43' E 000°35'8 8.3
2014-Aug-27 05:33N 36°45' E 000°45'9 8.7
2014-Aug-27 04:31N 36°48' E 000°56'9 9.2
2014-Aug-27 03:33N 36°50' E 001°06'13 9.0
2014-Aug-27 02:08N 36°52' E 001°22'9 9.2
2014-Aug-27 01:09N 36°53' E 001°33'7 9.1
2014-Aug-27 00:26N 36°54' E 001°41'8 9.1
2014-Aug-26 23:33N 36°55' E 001°51'9 9.3
2014-Aug-26 22:33N 36°57' E 002°03'13 9.3
2014-Aug-26 21:08N 36°59' E 002°19'5 9.0
2014-Aug-26 20:33N 37°00' E 002°26'10 8.8
2014-Aug-26 19:25N 37°01' E 002°38'10 8.8
2014-Aug-26 18:18N 37°02' E 002°50'7 8.9
2014-Aug-26 17:33N 37°03' E 002°58'11 9.2
2014-Aug-26 16:23N 37°04' E 003°12'8 9.2
2014-Aug-26 15:32N 37°05' E 003°21'10 9.2
2014-Aug-26 14:27N 37°07' E 003°34'8 9.3
2014-Aug-26 13:33N 37°08' E 003°44'9 8.8
2014-Aug-26 12:33N 37°09' E 003°55'9 8.8
2014-Aug-26 11:33N 37°11' E 004°06'12 8.9
2014-Aug-26 10:15N 37°12' E 004°20'6 9.0
2014-Aug-26 09:33N 37°13' E 004°28'11 9.0
2014-Aug-26 08:22N 37°15' E 004°42'8 9.2
2014-Aug-26 07:27N 37°16' E 004°52'9 9.5
2014-Aug-26 06:33N 37°17' E 005°03'10 9.6
2014-Aug-26 05:32N 37°19' E 005°15'214 9.2
2014-Aug-25 06:20N 37°41' E 009°43'142 8.5
2014-Aug-24 13:31N 37°03' E 012°36'8 8.8
2014-Aug-24 12:33N 37°01' E 012°46'9 8.9
2014-Aug-24 11:33N 36°58' E 012°56'9 9.1
2014-Aug-24 10:33N 36°54' E 013°07'9 9.0
2014-Aug-24 09:33N 36°51' E 013°17'9 8.7
2014-Aug-24 08:33N 36°49' E 013°28'9 8.9
2014-Aug-24 07:33N 36°46' E 013°38'9 8.9
2014-Aug-24 06:33N 36°43' E 013°49'9 9.2
2014-Aug-24 05:33N 36°40' E 013°60'10 9.5
2014-Aug-24 04:33N 36°37' E 014°11'10 9.6
2014-Aug-24 03:33N 36°33' E 014°22'10 9.5
2014-Aug-24 02:33N 36°30' E 014°33'9 9.2
2014-Aug-24 01:33N 36°27' E 014°44'418 9.1
2014-Aug-22 03:33N 36°39' E 023°24'1010.1
2014-Aug-22 02:32N 36°48' E 023°30'10 9.9
2014-Aug-22 01:33N 36°56' E 023°37'1210.1
2014-Aug-22 00:22N 37°07' E 023°44'1010.4
2014-Aug-21 23:24N 37°15' E 023°51'810.1
2014-Aug-21 22:33N 37°22' E 023°57'30 9.3
2014-Aug-21 19:18N 37°47' E 024°19'64 9.4
2014-Aug-21 12:31N 38°41' E 025°03'10 9.8
2014-Aug-21 11:32N 38°49' E 025°08'1010.0
2014-Aug-21 10:33N 38°58' E 025°14'10 9.8
2014-Aug-21 09:33N 39°07' E 025°19'34 9.9
2014-Aug-21 06:11N 39°37' E 025°39'1010.3
2014-Aug-21 05:13N 39°45' E 025°45'1010.9
2014-Aug-21 04:17N 39°54' E 025°52'710.2
2014-Aug-21 03:33N 40°00' E 025°57'50 9.5
2014-Aug-20 22:15N 40°29' E 026°52'99 9.2
2014-Aug-20 11:33N 40°58' E 028°56'  

Dump ship's entire track history